Time,TemperatureF,DewpointF,PressureIn,WindDirection,WindDirectionDegrees,WindSpeedMPH,WindSpeedGustMPH,Humidity,HourlyPrecipIn,Conditions,Clouds,dailyrainin,SoftwareType,DateUTC
2013-01-03 00:02:00,8.0,-1.0,-100.00,North,-999,-999.0,-999.0,66,-99.99,,,-99.99,,2013-01-03 07:02:00,
2013-01-03 00:12:00,8.0,-1.0,-100.00,North,-999,-999.0,-999.0,65,-99.99,,,-99.99,,2013-01-03 07:12:00,
2013-01-03 00:22:00,8.0,-1.0,-100.00,North,-999,-999.0,-999.0,65,-99.99,,,-99.99,,2013-01-03 07:22:00,
2013-01-03 00:32:00,8.0,-1.0,-100.00,North,-999,-999.0,-999.0,65,-99.99,,,-99.99,,2013-01-03 07:32:00,
2013-01-03 00:42:00,8.0,-1.0,-100.00,North,-999,-999.0,-999.0,65,-99.99,,,-99.99,,2013-01-03 07:42:00,
2013-01-03 00:53:00,8.0,-1.0,-100.00,North,-999,-999.0,-999.0,65,-99.99,,,-99.99,,2013-01-03 07:53:00,
2013-01-03 01:02:00,8.0,-1.0,-100.00,North,-999,-999.0,-999.0,65,-99.99,,,-99.99,,2013-01-03 08:02:00,
2013-01-03 01:11:00,7.0,-1.0,-100.00,North,-999,-999.0,-999.0,67,-99.99,,,-99.99,,2013-01-03 08:11:00,
2013-01-03 01:22:00,7.0,-1.0,-100.00,North,-999,-999.0,-999.0,67,-99.99,,,-99.99,,2013-01-03 08:22:00,
2013-01-03 01:32:00,7.0,-1.0,-100.00,North,-999,-999.0,-999.0,67,-99.99,,,-99.99,,2013-01-03 08:32:00,
2013-01-03 01:42:00,8.0,-2.0,-100.00,North,-999,-999.0,-999.0,62,-99.99,,,-99.99,,2013-01-03 08:42:00,
2013-01-03 01:53:00,8.0,-2.0,-100.00,North,-999,-999.0,-999.0,62,-99.99,,,-99.99,,2013-01-03 08:53:00,
2013-01-03 02:02:00,8.0,-2.0,-100.00,North,-999,-999.0,-999.0,61,-99.99,,,-99.99,,2013-01-03 09:02:00,
2013-01-03 02:11:00,9.0,-2.0,-100.00,North,-999,-999.0,-999.0,60,-99.99,,,-99.99,,2013-01-03 09:11:00,
2013-01-03 02:22:00,9.0,-2.0,-100.00,North,-999,-999.0,-999.0,60,-99.99,,,-99.99,,2013-01-03 09:22:00,
2013-01-03 02:33:00,9.0,-2.0,-100.00,North,-999,-999.0,-999.0,60,-99.99,,,-99.99,,2013-01-03 09:33:00,
2013-01-03 02:42:00,8.0,-2.0,-100.00,North,-999,-999.0,-999.0,61,-99.99,,,-99.99,,2013-01-03 09:42:00,
2013-01-03 02:53:00,8.0,-2.0,-100.00,North,-999,-999.0,-999.0,61,-99.99,,,-99.99,,2013-01-03 09:53:00,
2013-01-03 03:02:00,8.0,-2.0,-100.00,North,-999,-999.0,-999.0,61,-99.99,,,-99.99,,2013-01-03 10:02:00,
2013-01-03 03:12:00,9.0,-2.0,-100.00,North,-999,-999.0,-999.0,61,-99.99,,,-99.99,,2013-01-03 10:12:00,
2013-01-03 03:22:00,9.0,-2.0,-100.00,North,-999,-999.0,-999.0,61,-99.99,,,-99.99,,2013-01-03 10:22:00,
2013-01-03 03:32:00,9.0,-2.0,-100.00,North,-999,-999.0,-999.0,61,-99.99,,,-99.99,,2013-01-03 10:32:00,
2013-01-03 03:42:00,8.0,-2.0,-100.00,North,-999,-999.0,-999.0,63,-99.99,,,-99.99,,2013-01-03 10:42:00,
2013-01-03 03:52:00,8.0,-2.0,-100.00,North,-999,-999.0,-999.0,63,-99.99,,,-99.99,,2013-01-03 10:52:00,
2013-01-03 04:02:00,8.0,-2.0,-100.00,North,-999,-999.0,-999.0,62,-99.99,,,-99.99,,2013-01-03 11:02:00,
2013-01-03 04:11:00,8.0,-2.0,-100.00,North,-999,-999.0,-999.0,64,-99.99,,,-99.99,,2013-01-03 11:11:00,
2013-01-03 04:22:00,8.0,-2.0,-100.00,North,-999,-999.0,-999.0,64,-99.99,,,-99.99,,2013-01-03 11:22:00,
2013-01-03 04:32:00,8.0,-2.0,-100.00,North,-999,-999.0,-999.0,64,-99.99,,,-99.99,,2013-01-03 11:32:00,
2013-01-03 04:42:00,8.0,-2.0,-100.00,North,-999,-999.0,-999.0,63,-99.99,,,-99.99,,2013-01-03 11:42:00,
2013-01-03 04:53:00,8.0,-2.0,-100.00,North,-999,-999.0,-999.0,63,-99.99,,,-99.99,,2013-01-03 11:53:00,
2013-01-03 05:02:00,8.0,-2.0,-100.00,North,-999,-999.0,-999.0,63,-99.99,,,-99.99,,2013-01-03 12:02:00,
2013-01-03 05:12:00,7.0,-3.0,-100.00,North,-999,-999.0,-999.0,65,-99.99,,,-99.99,,2013-01-03 12:12:00,
2013-01-03 05:22:00,7.0,-3.0,-100.00,North,-999,-999.0,-999.0,65,-99.99,,,-99.99,,2013-01-03 12:22:00,
2013-01-03 05:32:00,7.0,-3.0,-100.00,North,-999,-999.0,-999.0,65,-99.99,,,-99.99,,2013-01-03 12:32:00,
2013-01-03 05:42:00,6.0,-3.0,-100.00,North,-999,-999.0,-999.0,66,-99.99,,,-99.99,,2013-01-03 12:42:00,
2013-01-03 05:53:00,5.0,-4.0,-100.00,North,-999,-999.0,-999.0,67,-99.99,,,-99.99,,2013-01-03 12:53:00,
2013-01-03 06:02:00,5.0,-4.0,-100.00,North,-999,-999.0,-999.0,67,-99.99,,,-99.99,,2013-01-03 13:02:00,
2013-01-03 06:12:00,5.0,-3.0,-100.00,North,-999,-999.0,-999.0,67,-99.99,,,-99.99,,2013-01-03 13:12:00,
2013-01-03 06:22:00,5.0,-3.0,-100.00,North,-999,-999.0,-999.0,67,-99.99,,,-99.99,,2013-01-03 13:22:00,
2013-01-03 06:32:00,5.0,-3.0,-100.00,North,-999,-999.0,-999.0,67,-99.99,,,-99.99,,2013-01-03 13:32:00,
2013-01-03 06:42:00,5.0,-3.0,-100.00,North,-999,-999.0,-999.0,68,-99.99,,,-99.99,,2013-01-03 13:42:00,
2013-01-03 06:53:00,5.0,-3.0,-100.00,North,-999,-999.0,-999.0,68,-99.99,,,-99.99,,2013-01-03 13:53:00,
2013-01-03 07:02:00,6.0,-2.0,-100.00,North,-999,-999.0,-999.0,68,-99.99,,,-99.99,,2013-01-03 14:02:00,
2013-01-03 07:12:00,7.0,-1.0,-100.00,North,-999,-999.0,-999.0,67,-99.99,,,-99.99,,2013-01-03 14:12:00,
2013-01-03 07:22:00,7.0,-1.0,-100.00,North,-999,-999.0,-999.0,67,-99.99,,,-99.99,,2013-01-03 14:22:00,
2013-01-03 07:32:00,7.0,-1.0,-100.00,North,-999,-999.0,-999.0,67,-99.99,,,-99.99,,2013-01-03 14:32:00,
2013-01-03 07:42:00,8.0,-2.0,-100.00,North,-999,-999.0,-999.0,62,-99.99,,,-99.99,,2013-01-03 14:42:00,
2013-01-03 08:02:00,7.0,-2.0,-100.00,North,-999,-999.0,-999.0,62,-99.99,,,-99.99,,2013-01-03 15:02:00,
2013-01-03 08:12:00,6.0,-3.0,-100.00,North,-999,-999.0,-999.0,64,-99.99,,,-99.99,,2013-01-03 15:12:00,
2013-01-03 08:22:00,6.0,-3.0,-100.00,North,-999,-999.0,-999.0,64,-99.99,,,-99.99,,2013-01-03 15:22:00,
2013-01-03 08:33:00,6.0,-3.0,-100.00,North,-999,-999.0,-999.0,64,-99.99,,,-99.99,,2013-01-03 15:33:00,
2013-01-03 08:42:00,6.0,-2.0,-100.00,North,-999,-999.0,-999.0,67,-99.99,,,-99.99,,2013-01-03 15:42:00,
2013-01-03 08:53:00,6.0,-2.0,-100.00,North,-999,-999.0,-999.0,67,-99.99,,,-99.99,,2013-01-03 15:53:00,
2013-01-03 09:03:00,7.0,-2.0,-100.00,North,-999,-999.0,-999.0,66,-99.99,,,-99.99,,2013-01-03 16:03:00,
2013-01-03 09:12:00,7.0,-2.0,-100.00,North,-999,-999.0,-999.0,65,-99.99,,,-99.99,,2013-01-03 16:12:00,
2013-01-03 09:22:00,7.0,-2.0,-100.00,North,-999,-999.0,-999.0,65,-99.99,,,-99.99,,2013-01-03 16:22:00,
2013-01-03 09:33:00,7.0,-2.0,-100.00,North,-999,-999.0,-999.0,65,-99.99,,,-99.99,,2013-01-03 16:33:00,
2013-01-03 09:43:00,9.0,0.0,-100.00,North,-999,-999.0,-999.0,64,-99.99,,,-99.99,,2013-01-03 16:43:00,
2013-01-03 09:53:00,9.0,0.0,-100.00,North,-999,-999.0,-999.0,64,-99.99,,,-99.99,,2013-01-03 16:53:00,
2013-01-03 10:03:00,11.0,0.0,-100.00,North,-999,-999.0,-999.0,61,-99.99,,,-99.99,,2013-01-03 17:03:00,
2013-01-03 10:12:00,13.0,1.0,-100.00,North,-999,-999.0,-999.0,57,-99.99,,,-99.99,,2013-01-03 17:12:00,
2013-01-03 10:22:00,13.0,1.0,-100.00,North,-999,-999.0,-999.0,57,-99.99,,,-99.99,,2013-01-03 17:22:00,
2013-01-03 10:32:00,13.0,1.0,-100.00,North,-999,-999.0,-999.0,57,-99.99,,,-99.99,,2013-01-03 17:32:00,
2013-01-03 10:42:00,19.0,2.0,-100.00,North,-999,-999.0,-999.0,46,-99.99,,,-99.99,,2013-01-03 17:42:00,
2013-01-03 10:53:00,19.0,2.0,-100.00,North,-999,-999.0,-999.0,46,-99.99,,,-99.99,,2013-01-03 17:53:00,
2013-01-03 11:03:00,21.0,3.0,-100.00,North,-999,-999.0,-999.0,44,-99.99,,,-99.99,,2013-01-03 18:03:00,
2013-01-03 11:12:00,24.0,5.0,-100.00,North,-999,-999.0,-999.0,42,-99.99,,,-99.99,,2013-01-03 18:12:00,
2013-01-03 11:22:00,24.0,5.0,-100.00,North,-999,-999.0,-999.0,42,-99.99,,,-99.99,,2013-01-03 18:22:00,
2013-01-03 11:42:00,32.0,7.0,-100.00,North,-999,-999.0,-999.0,34,-99.99,,,-99.99,,2013-01-03 18:42:00,
2013-01-03 11:53:00,32.0,7.0,-100.00,North,-999,-999.0,-999.0,34,-99.99,,,-99.99,,2013-01-03 18:53:00,
2013-01-03 12:03:00,32.0,8.0,-100.00,North,-999,-999.0,-999.0,34,-99.99,,,-99.99,,2013-01-03 19:03:00,
2013-01-03 12:12:00,30.0,7.0,-100.00,North,-999,-999.0,-999.0,37,-99.99,,,-99.99,,2013-01-03 19:12:00,
2013-01-03 12:57:00,36.0,8.0,-100.00,North,-999,-999.0,-999.0,30,-99.99,,,-99.99,,2013-01-03 19:57:00,
2013-01-03 13:02:00,35.0,8.0,-100.00,North,-999,-999.0,-999.0,31,-99.99,,,-99.99,,2013-01-03 20:02:00,
2013-01-03 13:12:00,38.0,11.0,-100.00,North,-999,-999.0,-999.0,31,-99.99,,,-99.99,,2013-01-03 20:12:00,
2013-01-03 13:22:00,38.0,11.0,-100.00,North,-999,-999.0,-999.0,31,-99.99,,,-99.99,,2013-01-03 20:22:00,
2013-01-03 13:42:00,37.0,11.0,-100.00,North,-999,-999.0,-999.0,34,-99.99,,,-99.99,,2013-01-03 20:42:00,
2013-01-03 13:53:00,37.0,11.0,-100.00,North,-999,-999.0,-999.0,34,-99.99,,,-99.99,,2013-01-03 20:53:00,
2013-01-03 14:02:00,37.0,12.0,-100.00,North,-999,-999.0,-999.0,35,-99.99,,,-99.99,,2013-01-03 21:02:00,
2013-01-03 14:12:00,33.0,12.0,-100.00,North,-999,-999.0,-999.0,40,-99.99,,,-99.99,,2013-01-03 21:12:00,
2013-01-03 14:22:00,33.0,12.0,-100.00,North,-999,-999.0,-999.0,40,-99.99,,,-99.99,,2013-01-03 21:22:00,
2013-01-03 14:34:00,33.0,12.0,-100.00,North,-999,-999.0,-999.0,40,-99.99,,,-99.99,,2013-01-03 21:34:00,
2013-01-03 14:46:00,28.0,11.0,-100.00,North,-999,-999.0,-999.0,49,-99.99,,,-99.99,,2013-01-03 21:46:00,
2013-01-03 14:53:00,28.0,11.0,-100.00,North,-999,-999.0,-999.0,49,-99.99,,,-99.99,,2013-01-03 21:53:00,
2013-01-03 15:02:00,26.0,10.0,-100.00,North,-999,-999.0,-999.0,50,-99.99,,,-99.99,,2013-01-03 22:02:00,
2013-01-03 15:12:00,29.0,12.0,-100.00,North,-999,-999.0,-999.0,48,-99.99,,,-99.99,,2013-01-03 22:12:00,
2013-01-03 15:22:00,29.0,12.0,-100.00,North,-999,-999.0,-999.0,48,-99.99,,,-99.99,,2013-01-03 22:22:00,
2013-01-03 15:42:00,33.0,11.0,-100.00,North,-999,-999.0,-999.0,40,-99.99,,,-99.99,,2013-01-03 22:42:00,
2013-01-03 15:52:00,33.0,11.0,-100.00,North,-999,-999.0,-999.0,40,-99.99,,,-99.99,,2013-01-03 22:52:00,
2013-01-03 16:02:00,30.0,11.0,-100.00,North,-999,-999.0,-999.0,45,-99.99,,,-99.99,,2013-01-03 23:02:00,
2013-01-03 16:12:00,23.0,9.0,-100.00,North,-999,-999.0,-999.0,55,-99.99,,,-99.99,,2013-01-03 23:12:00,
2013-01-03 16:22:00,23.0,9.0,-100.00,North,-999,-999.0,-999.0,55,-99.99,,,-99.99,,2013-01-03 23:22:00,
2013-01-03 16:32:00,23.0,9.0,-100.00,North,-999,-999.0,-999.0,55,-99.99,,,-99.99,,2013-01-03 23:32:00,
2013-01-03 16:42:00,16.0,8.0,-100.00,North,-999,-999.0,-999.0,70,-99.99,,,-99.99,,2013-01-03 23:42:00,
2013-01-03 16:53:00,16.0,8.0,-100.00,North,-999,-999.0,-999.0,70,-99.99,,,-99.99,,2013-01-03 23:53:00,
2013-01-03 17:03:00,16.0,7.0,-100.00,North,-999,-999.0,-999.0,68,-99.99,,,-99.99,,2013-01-04 00:03:00,
2013-01-03 17:12:00,16.0,7.0,-100.00,North,-999,-999.0,-999.0,68,-99.99,,,-99.99,,2013-01-04 00:12:00,
2013-01-03 17:22:00,16.0,7.0,-100.00,North,-999,-999.0,-999.0,68,-99.99,,,-99.99,,2013-01-04 00:22:00,
2013-01-03 17:42:00,15.0,6.0,-100.00,North,-999,-999.0,-999.0,66,-99.99,,,-99.99,,2013-01-04 00:42:00,
2013-01-03 17:52:00,15.0,6.0,-100.00,North,-999,-999.0,-999.0,66,-99.99,,,-99.99,,2013-01-04 00:52:00,
2013-01-03 18:02:00,15.0,6.0,-100.00,North,-999,-999.0,-999.0,64,-99.99,,,-99.99,,2013-01-04 01:02:00,
2013-01-03 18:12:00,15.0,5.0,-100.00,North,-999,-999.0,-999.0,63,-99.99,,,-99.99,,2013-01-04 01:12:00,
2013-01-03 18:22:00,15.0,5.0,-100.00,North,-999,-999.0,-999.0,63,-99.99,,,-99.99,,2013-01-04 01:22:00,
2013-01-03 18:32:00,15.0,5.0,-100.00,North,-999,-999.0,-999.0,63,-99.99,,,-99.99,,2013-01-04 01:32:00,
2013-01-03 18:42:00,15.0,4.0,-100.00,North,-999,-999.0,-999.0,61,-99.99,,,-99.99,,2013-01-04 01:42:00,
2013-01-03 18:52:00,15.0,4.0,-100.00,North,-999,-999.0,-999.0,61,-99.99,,,-99.99,,2013-01-04 01:52:00,
2013-01-03 19:02:00,15.0,4.0,-100.00,North,-999,-999.0,-999.0,61,-99.99,,,-99.99,,2013-01-04 02:02:00,
2013-01-03 19:12:00,15.0,4.0,-100.00,North,-999,-999.0,-999.0,59,-99.99,,,-99.99,,2013-01-04 02:12:00,
2013-01-03 19:22:00,15.0,4.0,-100.00,North,-999,-999.0,-999.0,59,-99.99,,,-99.99,,2013-01-04 02:22:00,
2013-01-03 19:32:00,15.0,4.0,-100.00,North,-999,-999.0,-999.0,59,-99.99,,,-99.99,,2013-01-04 02:32:00,
2013-01-03 19:42:00,15.0,2.0,-100.00,North,-999,-999.0,-999.0,57,-99.99,,,-99.99,,2013-01-04 02:42:00,
2013-01-03 19:53:00,15.0,2.0,-100.00,North,-999,-999.0,-999.0,57,-99.99,,,-99.99,,2013-01-04 02:53:00,
2013-01-03 20:02:00,15.0,1.0,-100.00,North,-999,-999.0,-999.0,54,-99.99,,,-99.99,,2013-01-04 03:02:00,
2013-01-03 20:12:00,15.0,1.0,-100.00,North,-999,-999.0,-999.0,52,-99.99,,,-99.99,,2013-01-04 03:12:00,
2013-01-03 20:22:00,15.0,1.0,-100.00,North,-999,-999.0,-999.0,52,-99.99,,,-99.99,,2013-01-04 03:22:00,
2013-01-03 20:32:00,15.0,1.0,-100.00,North,-999,-999.0,-999.0,52,-99.99,,,-99.99,,2013-01-04 03:32:00,
2013-01-03 20:42:00,14.0,1.0,-100.00,North,-999,-999.0,-999.0,55,-99.99,,,-99.99,,2013-01-04 03:42:00,
2013-01-03 20:53:00,14.0,1.0,-100.00,North,-999,-999.0,-999.0,55,-99.99,,,-99.99,,2013-01-04 03:53:00,
2013-01-03 21:02:00,14.0,0.0,-100.00,North,-999,-999.0,-999.0,54,-99.99,,,-99.99,,2013-01-04 04:02:00,
2013-01-03 21:12:00,14.0,0.0,-100.00,North,-999,-999.0,-999.0,52,-99.99,,,-99.99,,2013-01-04 04:12:00,
2013-01-03 21:22:00,14.0,0.0,-100.00,North,-999,-999.0,-999.0,52,-99.99,,,-99.99,,2013-01-04 04:22:00,
2013-01-03 21:32:00,14.0,0.0,-100.00,North,-999,-999.0,-999.0,52,-99.99,,,-99.99,,2013-01-04 04:32:00,
2013-01-03 21:42:00,14.0,-1.0,-100.00,North,-999,-999.0,-999.0,50,-99.99,,,-99.99,,2013-01-04 04:42:00,
2013-01-03 21:52:00,16.0,0.0,-100.00,North,-999,-999.0,-999.0,48,-99.99,,,-99.99,,2013-01-04 04:52:00,
2013-01-03 22:03:00,16.0,0.0,-100.00,North,-999,-999.0,-999.0,48,-99.99,,,-99.99,,2013-01-04 05:03:00,
2013-01-03 22:12:00,16.0,0.0,-100.00,North,-999,-999.0,-999.0,47,-99.99,,,-99.99,,2013-01-04 05:12:00,
2013-01-03 22:22:00,16.0,0.0,-100.00,North,-999,-999.0,-999.0,47,-99.99,,,-99.99,,2013-01-04 05:22:00,
2013-01-03 22:33:00,16.0,0.0,-100.00,North,-999,-999.0,-999.0,47,-99.99,,,-99.99,,2013-01-04 05:33:00,
2013-01-03 22:42:00,16.0,-1.0,-100.00,North,-999,-999.0,-999.0,47,-99.99,,,-99.99,,2013-01-04 05:42:00,
2013-01-03 22:53:00,16.0,-1.0,-100.00,North,-999,-999.0,-999.0,47,-99.99,,,-99.99,,2013-01-04 05:53:00,
2013-01-03 23:02:00,16.0,-1.0,-100.00,North,-999,-999.0,-999.0,46,-99.99,,,-99.99,,2013-01-04 06:02:00,
2013-01-03 23:12:00,17.0,-1.0,-100.00,North,-999,-999.0,-999.0,45,-99.99,,,-99.99,,2013-01-04 06:12:00,
2013-01-03 23:22:00,17.0,-1.0,-100.00,North,-999,-999.0,-999.0,45,-99.99,,,-99.99,,2013-01-04 06:22:00,
2013-01-03 23:32:00,17.0,-1.0,-100.00,North,-999,-999.0,-999.0,45,-99.99,,,-99.99,,2013-01-04 06:32:00,
2013-01-03 23:42:00,17.0,-1.0,-100.00,North,-999,-999.0,-999.0,44,-99.99,,,-99.99,,2013-01-04 06:42:00,
2013-01-03 23:52:00,17.0,-1.0,-100.00,North,-999,-999.0,-999.0,44,-99.99,,,-99.99,,2013-01-04 06:52:00,